sensor_id;sensor_type;location;lat;lon;timestamp;temperature;humidity
58153;DHT22;43967;51.634;5.566;2023-07-13T00:02:05;24.70;54.60
58153;DHT22;43967;51.634;5.566;2023-07-13T00:07:27;24.70;53.90
58153;DHT22;43967;51.634;5.566;2023-07-13T00:12:48;24.70;53.90
58153;DHT22;43967;51.634;5.566;2023-07-13T00:18:09;24.70;53.90
58153;DHT22;43967;51.634;5.566;2023-07-13T00:23:40;24.70;53.90
58153;DHT22;43967;51.634;5.566;2023-07-13T00:29:01;24.70;54.00
58153;DHT22;43967;51.634;5.566;2023-07-13T00:34:23;24.70;54.00
58153;DHT22;43967;51.634;5.566;2023-07-13T00:39:44;24.70;54.00
58153;DHT22;43967;51.634;5.566;2023-07-13T00:50:32;24.60;54.00
58153;DHT22;43967;51.634;5.566;2023-07-13T00:55:55;24.60;54.00
58153;DHT22;43967;51.634;5.566;2023-07-13T01:01:17;24.70;54.10
58153;DHT22;43967;51.634;5.566;2023-07-13T01:06:40;24.70;54.10
58153;DHT22;43967;51.634;5.566;2023-07-13T01:12:02;24.70;54.10
58153;DHT22;43967;51.634;5.566;2023-07-13T01:17:24;24.60;54.10
58153;DHT22;43967;51.634;5.566;2023-07-13T01:22:45;24.60;54.10
58153;DHT22;43967;51.634;5.566;2023-07-13T01:28:08;24.60;54.20
58153;DHT22;43967;51.634;5.566;2023-07-13T01:33:29;24.60;54.20
58153;DHT22;43967;51.634;5.566;2023-07-13T01:38:51;24.60;54.20
58153;DHT22;43967;51.634;5.566;2023-07-13T01:44:13;24.60;54.30
58153;DHT22;43967;51.634;5.566;2023-07-13T01:49:34;24.60;54.30
58153;DHT22;43967;51.634;5.566;2023-07-13T01:54:55;24.60;54.30
58153;DHT22;43967;51.634;5.566;2023-07-13T02:00:18;24.60;54.40
58153;DHT22;43967;51.634;5.566;2023-07-13T02:05:39;24.60;54.40
58153;DHT22;43967;51.634;5.566;2023-07-13T02:11:02;24.60;54.40
58153;DHT22;43967;51.634;5.566;2023-07-13T02:16:24;24.60;54.40
58153;DHT22;43967;51.634;5.566;2023-07-13T02:21:45;24.60;54.50
58153;DHT22;43967;51.634;5.566;2023-07-13T02:27:07;24.60;54.40
58153;DHT22;43967;51.634;5.566;2023-07-13T02:32:28;24.60;54.50
58153;DHT22;43967;51.634;5.566;2023-07-13T02:37:49;24.50;54.40
58153;DHT22;43967;51.634;5.566;2023-07-13T02:43:11;24.50;54.50
58153;DHT22;43967;51.634;5.566;2023-07-13T02:48:35;24.50;54.50
58153;DHT22;43967;51.634;5.566;2023-07-13T02:53:57;24.50;54.50
58153;DHT22;43967;51.634;5.566;2023-07-13T02:59:18;24.50;54.50
58153;DHT22;43967;51.634;5.566;2023-07-13T03:04:39;24.50;54.60
58153;DHT22;43967;51.634;5.566;2023-07-13T03:10:00;24.50;54.60
58153;DHT22;43967;51.634;5.566;2023-07-13T03:15:22;24.50;54.50
58153;DHT22;43967;51.634;5.566;2023-07-13T03:20:43;24.50;54.60
58153;DHT22;43967;51.634;5.566;2023-07-13T03:26:07;24.50;54.70
58153;DHT22;43967;51.634;5.566;2023-07-13T03:31:33;24.50;54.70
58153;DHT22;43967;51.634;5.566;2023-07-13T03:36:54;24.50;54.70
58153;DHT22;43967;51.634;5.566;2023-07-13T03:42:16;24.50;54.60
58153;DHT22;43967;51.634;5.566;2023-07-13T03:47:37;24.50;54.60
58153;DHT22;43967;51.634;5.566;2023-07-13T03:53:00;24.50;54.70
58153;DHT22;43967;51.634;5.566;2023-07-13T03:58:38;24.50;54.80
58153;DHT22;43967;51.634;5.566;2023-07-13T04:04:00;24.50;54.70
58153;DHT22;43967;51.634;5.566;2023-07-13T04:09:21;24.50;54.80
58153;DHT22;43967;51.634;5.566;2023-07-13T04:14:43;24.50;54.70
58153;DHT22;43967;51.634;5.566;2023-07-13T04:20:04;24.30;54.90
58153;DHT22;43967;51.634;5.566;2023-07-13T04:25:26;24.30;55.00
58153;DHT22;43967;51.634;5.566;2023-07-13T04:30:48;24.40;54.90
58153;DHT22;43967;51.634;5.566;2023-07-13T04:36:10;24.40;54.80
58153;DHT22;43967;51.634;5.566;2023-07-13T04:41:31;24.40;54.80
58153;DHT22;43967;51.634;5.566;2023-07-13T04:46:52;24.40;54.80
58153;DHT22;43967;51.634;5.566;2023-07-13T04:52:14;24.40;54.80
58153;DHT22;43967;51.634;5.566;2023-07-13T04:57:35;24.40;54.80
58153;DHT22;43967;51.634;5.566;2023-07-13T05:02:57;24.40;54.90
58153;DHT22;43967;51.634;5.566;2023-07-13T05:08:19;24.40;54.90
58153;DHT22;43967;51.634;5.566;2023-07-13T05:13:40;24.40;54.90
58153;DHT22;43967;51.634;5.566;2023-07-13T05:19:02;24.40;54.90
58153;DHT22;43967;51.634;5.566;2023-07-13T05:24:23;24.40;55.00
58153;DHT22;43967;51.634;5.566;2023-07-13T05:29:44;24.40;54.90
58153;DHT22;43967;51.634;5.566;2023-07-13T05:35:06;24.40;54.90
58153;DHT22;43967;51.634;5.566;2023-07-13T05:40:27;24.40;55.60
58153;DHT22;43967;51.634;5.566;2023-07-13T05:45:49;24.00;56.50
58153;DHT22;43967;51.634;5.566;2023-07-13T05:51:12;23.90;57.20
58153;DHT22;43967;51.634;5.566;2023-07-13T05:56:33;23.70;57.80
58153;DHT22;43967;51.634;5.566;2023-07-13T06:01:55;23.60;58.30
58153;DHT22;43967;51.634;5.566;2023-07-13T06:07:16;23.50;58.60
58153;DHT22;43967;51.634;5.566;2023-07-13T06:12:37;23.40;58.90
58153;DHT22;43967;51.634;5.566;2023-07-13T06:17:58;23.40;59.20
58153;DHT22;43967;51.634;5.566;2023-07-13T06:23:20;23.40;59.50
58153;DHT22;43967;51.634;5.566;2023-07-13T06:28:41;23.40;59.60
58153;DHT22;43967;51.634;5.566;2023-07-13T06:34:02;23.30;59.70
58153;DHT22;43967;51.634;5.566;2023-07-13T06:39:24;23.60;59.20
58153;DHT22;43967;51.634;5.566;2023-07-13T06:44:45;23.70;58.90
58153;DHT22;43967;51.634;5.566;2023-07-13T06:50:06;23.80;59.20
58153;DHT22;43967;51.634;5.566;2023-07-13T06:55:28;23.80;58.80
58153;DHT22;43967;51.634;5.566;2023-07-13T07:00:52;24.00;58.40
58153;DHT22;43967;51.634;5.566;2023-07-13T07:06:16;24.00;58.20
58153;DHT22;43967;51.634;5.566;2023-07-13T07:11:38;24.00;58.10
58153;DHT22;43967;51.634;5.566;2023-07-13T07:16:59;24.10;58.10
58153;DHT22;43967;51.634;5.566;2023-07-13T07:22:21;24.00;58.00
58153;DHT22;43967;51.634;5.566;2023-07-13T07:27:43;24.10;57.90
58153;DHT22;43967;51.634;5.566;2023-07-13T07:33:04;24.10;57.70
58153;DHT22;43967;51.634;5.566;2023-07-13T07:38:25;24.20;57.60
58153;DHT22;43967;51.634;5.566;2023-07-13T07:43:47;24.30;57.40
58153;DHT22;43967;51.634;5.566;2023-07-13T07:49:08;24.30;57.40
58153;DHT22;43967;51.634;5.566;2023-07-13T07:54:29;24.30;57.30
58153;DHT22;43967;51.634;5.566;2023-07-13T07:59:50;24.40;57.10
58153;DHT22;43967;51.634;5.566;2023-07-13T08:05:12;24.50;56.80
58153;DHT22;43967;51.634;5.566;2023-07-13T08:10:35;24.60;56.50
58153;DHT22;43967;51.634;5.566;2023-07-13T08:15:57;24.60;56.40
58153;DHT22;43967;51.634;5.566;2023-07-13T08:21:19;24.70;56.30
58153;DHT22;43967;51.634;5.566;2023-07-13T08:26:41;24.70;56.20
58153;DHT22;43967;51.634;5.566;2023-07-13T08:32:02;24.80;56.20
58153;DHT22;43967;51.634;5.566;2023-07-13T08:37:23;24.80;56.00
58153;DHT22;43967;51.634;5.566;2023-07-13T08:42:49;24.80;56.00
58153;DHT22;43967;51.634;5.566;2023-07-13T08:48:56;24.80;56.10
58153;DHT22;43967;51.634;5.566;2023-07-13T08:54:26;24.80;56.00
58153;DHT22;43967;51.634;5.566;2023-07-13T08:59:48;24.80;56.00
58153;DHT22;43967;51.634;5.566;2023-07-13T09:05:17;24.80;56.00
58153;DHT22;43967;51.634;5.566;2023-07-13T09:10:48;24.80;55.90
58153;DHT22;43967;51.634;5.566;2023-07-13T09:16:11;24.80;55.90
58153;DHT22;43967;51.634;5.566;2023-07-13T09:21:37;24.90;55.90
58153;DHT22;43967;51.634;5.566;2023-07-13T09:27:00;24.80;55.80
58153;DHT22;43967;51.634;5.566;2023-07-13T09:32:24;24.90;55.80
58153;DHT22;43967;51.634;5.566;2023-07-13T09:37:47;24.90;55.80
58153;DHT22;43967;51.634;5.566;2023-07-13T09:43:13;24.80;55.80
58153;DHT22;43967;51.634;5.566;2023-07-13T09:48:35;24.90;55.80
58153;DHT22;43967;51.634;5.566;2023-07-13T09:53:57;24.90;55.80
58153;DHT22;43967;51.634;5.566;2023-07-13T09:59:23;24.90;55.80
58153;DHT22;43967;51.634;5.566;2023-07-13T10:04:45;24.90;55.80
58153;DHT22;43967;51.634;5.566;2023-07-13T10:10:15;24.90;55.90
58153;DHT22;43967;51.634;5.566;2023-07-13T10:15:36;24.90;55.90
58153;DHT22;43967;51.634;5.566;2023-07-13T10:21:17;24.90;55.90
58153;DHT22;43967;51.634;5.566;2023-07-13T10:26:45;24.90;55.90
58153;DHT22;43967;51.634;5.566;2023-07-13T10:32:12;24.90;55.90
58153;DHT22;43967;51.634;5.566;2023-07-13T10:37:43;24.90;55.90
58153;DHT22;43967;51.634;5.566;2023-07-13T10:43:18;24.90;55.90
58153;DHT22;43967;51.634;5.566;2023-07-13T10:48:40;24.90;55.80
58153;DHT22;43967;51.634;5.566;2023-07-13T10:54:17;24.90;55.90
58153;DHT22;43967;51.634;5.566;2023-07-13T10:59:39;24.90;55.80
58153;DHT22;43967;51.634;5.566;2023-07-13T11:05:20;24.90;55.90
58153;DHT22;43967;51.634;5.566;2023-07-13T11:10:54;25.00;55.80
58153;DHT22;43967;51.634;5.566;2023-07-13T11:16:43;25.00;55.80
58153;DHT22;43967;51.634;5.566;2023-07-13T11:27:49;25.00;55.80
58153;DHT22;43967;51.634;5.566;2023-07-13T11:33:48;25.00;55.90
58153;DHT22;43967;51.634;5.566;2023-07-13T11:39:25;25.00;55.90
58153;DHT22;43967;51.634;5.566;2023-07-13T11:44:50;25.00;56.00
58153;DHT22;43967;51.634;5.566;2023-07-13T11:50:23;25.00;56.10
58153;DHT22;43967;51.634;5.566;2023-07-13T11:55:44;25.00;56.10
58153;DHT22;43967;51.634;5.566;2023-07-13T12:01:06;25.00;56.10
58153;DHT22;43967;51.634;5.566;2023-07-13T12:06:30;25.00;56.20
58153;DHT22;43967;51.634;5.566;2023-07-13T12:11:52;25.00;56.30
58153;DHT22;43967;51.634;5.566;2023-07-13T12:17:19;25.00;56.30
58153;DHT22;43967;51.634;5.566;2023-07-13T12:22:46;25.00;56.30
58153;DHT22;43967;51.634;5.566;2023-07-13T12:28:21;25.10;56.30
58153;DHT22;43967;51.634;5.566;2023-07-13T12:33:43;25.00;56.30
58153;DHT22;43967;51.634;5.566;2023-07-13T12:39:15;25.00;56.40
58153;DHT22;43967;51.634;5.566;2023-07-13T12:44:40;25.00;56.40
58153;DHT22;43967;51.634;5.566;2023-07-13T12:50:03;25.00;56.30
58153;DHT22;43967;51.634;5.566;2023-07-13T12:55:25;25.00;56.30
58153;DHT22;43967;51.634;5.566;2023-07-13T13:00:50;25.00;56.40
58153;DHT22;43967;51.634;5.566;2023-07-13T13:11:39;25.00;56.40
58153;DHT22;43967;51.634;5.566;2023-07-13T13:17:00;25.10;56.30
58153;DHT22;43967;51.634;5.566;2023-07-13T13:22:22;25.10;56.30
58153;DHT22;43967;51.634;5.566;2023-07-13T13:27:44;25.00;56.30
58153;DHT22;43967;51.634;5.566;2023-07-13T13:33:13;25.00;56.40
58153;DHT22;43967;51.634;5.566;2023-07-13T13:38:35;25.00;56.40
58153;DHT22;43967;51.634;5.566;2023-07-13T13:43:57;25.00;56.40
58153;DHT22;43967;51.634;5.566;2023-07-13T13:49:21;25.00;56.40
58153;DHT22;43967;51.634;5.566;2023-07-13T13:54:43;25.00;56.30
58153;DHT22;43967;51.634;5.566;2023-07-13T14:00:05;25.00;56.30
58153;DHT22;43967;51.634;5.566;2023-07-13T14:05:26;25.00;56.30
58153;DHT22;43967;51.634;5.566;2023-07-13T14:10:49;25.00;56.30
58153;DHT22;43967;51.634;5.566;2023-07-13T14:16:14;25.00;57.00
58153;DHT22;43967;51.634;5.566;2023-07-13T14:21:36;25.00;56.30
58153;DHT22;43967;51.634;5.566;2023-07-13T14:26:57;25.00;56.20
58153;DHT22;43967;51.634;5.566;2023-07-13T14:32:19;25.00;56.30
58153;DHT22;43967;51.634;5.566;2023-07-13T14:37:41;25.00;56.20
58153;DHT22;43967;51.634;5.566;2023-07-13T14:43:02;25.10;56.20
58153;DHT22;43967;51.634;5.566;2023-07-13T14:48:24;25.10;56.10
58153;DHT22;43967;51.634;5.566;2023-07-13T14:53:45;25.10;56.10
58153;DHT22;43967;51.634;5.566;2023-07-13T14:59:07;25.10;56.10
58153;DHT22;43967;51.634;5.566;2023-07-13T15:04:29;25.10;56.10
58153;DHT22;43967;51.634;5.566;2023-07-13T15:09:51;25.10;56.20
58153;DHT22;43967;51.634;5.566;2023-07-13T15:15:13;25.10;56.10
58153;DHT22;43967;51.634;5.566;2023-07-13T15:20:34;25.10;56.10
58153;DHT22;43967;51.634;5.566;2023-07-13T15:25:56;25.10;56.10
58153;DHT22;43967;51.634;5.566;2023-07-13T15:31:20;25.10;56.00
58153;DHT22;43967;51.634;5.566;2023-07-13T15:36:42;25.10;56.00
58153;DHT22;43967;51.634;5.566;2023-07-13T15:42:04;25.10;56.00
58153;DHT22;43967;51.634;5.566;2023-07-13T15:47:25;25.10;55.90
58153;DHT22;43967;51.634;5.566;2023-07-13T15:52:49;25.10;55.90
58153;DHT22;43967;51.634;5.566;2023-07-13T15:58:12;25.10;55.90
58153;DHT22;43967;51.634;5.566;2023-07-13T16:03:33;25.10;55.80
58153;DHT22;43967;51.634;5.566;2023-07-13T16:08:55;25.10;55.70
58153;DHT22;43967;51.634;5.566;2023-07-13T16:14:16;25.10;55.70
58153;DHT22;43967;51.634;5.566;2023-07-13T16:19:37;25.20;55.70
58153;DHT22;43967;51.634;5.566;2023-07-13T16:24:59;25.10;55.60
58153;DHT22;43967;51.634;5.566;2023-07-13T16:30:22;25.10;55.70
58153;DHT22;43967;51.634;5.566;2023-07-13T16:35:44;25.10;55.70
58153;DHT22;43967;51.634;5.566;2023-07-13T16:41:05;25.10;55.70
58153;DHT22;43967;51.634;5.566;2023-07-13T16:46:26;25.10;55.70
58153;DHT22;43967;51.634;5.566;2023-07-13T16:51:48;25.10;55.70
58153;DHT22;43967;51.634;5.566;2023-07-13T16:57:15;25.10;55.70
58153;DHT22;43967;51.634;5.566;2023-07-13T17:02:37;25.10;55.70
58153;DHT22;43967;51.634;5.566;2023-07-13T17:07:59;25.10;55.70
58153;DHT22;43967;51.634;5.566;2023-07-13T17:13:21;25.10;55.70
58153;DHT22;43967;51.634;5.566;2023-07-13T17:18:42;25.10;55.70
58153;DHT22;43967;51.634;5.566;2023-07-13T17:24:16;25.10;55.70
58153;DHT22;43967;51.634;5.566;2023-07-13T17:29:38;25.10;55.70
58153;DHT22;43967;51.634;5.566;2023-07-13T17:34:59;25.10;55.70
58153;DHT22;43967;51.634;5.566;2023-07-13T17:40:21;25.10;55.70
58153;DHT22;43967;51.634;5.566;2023-07-13T17:45:42;25.10;55.80
58153;DHT22;43967;51.634;5.566;2023-07-13T17:51:04;25.10;55.90
58153;DHT22;43967;51.634;5.566;2023-07-13T17:56:25;25.10;56.10
58153;DHT22;43967;51.634;5.566;2023-07-13T18:01:46;25.00;56.20
58153;DHT22;43967;51.634;5.566;2023-07-13T18:07:09;24.90;56.00
58153;DHT22;43967;51.634;5.566;2023-07-13T18:12:31;24.80;56.70
58153;DHT22;43967;51.634;5.566;2023-07-13T18:17:52;24.60;57.20
58153;DHT22;43967;51.634;5.566;2023-07-13T18:23:17;24.50;56.90
58153;DHT22;43967;51.634;5.566;2023-07-13T18:28:41;24.50;57.00
58153;DHT22;43967;51.634;5.566;2023-07-13T18:34:03;24.40;57.20
58153;DHT22;43967;51.634;5.566;2023-07-13T18:39:24;24.30;57.40
58153;DHT22;43967;51.634;5.566;2023-07-13T18:44:46;24.30;57.40
58153;DHT22;43967;51.634;5.566;2023-07-13T18:50:19;24.20;57.60
58153;DHT22;43967;51.634;5.566;2023-07-13T18:55:41;24.20;57.50
58153;DHT22;43967;51.634;5.566;2023-07-13T19:01:05;24.20;57.60
58153;DHT22;43967;51.634;5.566;2023-07-13T19:06:26;24.10;60.30
58153;DHT22;43967;51.634;5.566;2023-07-13T19:11:47;24.00;62.70
58153;DHT22;43967;51.634;5.566;2023-07-13T19:17:10;23.80;63.70
58153;DHT22;43967;51.634;5.566;2023-07-13T19:22:31;23.80;64.70
58153;DHT22;43967;51.634;5.566;2023-07-13T19:28:01;23.80;64.70
58153;DHT22;43967;51.634;5.566;2023-07-13T19:33:23;23.60;65.20
58153;DHT22;43967;51.634;5.566;2023-07-13T19:38:44;23.60;65.80
58153;DHT22;43967;51.634;5.566;2023-07-13T19:44:12;23.50;66.40
58153;DHT22;43967;51.634;5.566;2023-07-13T19:49:34;23.50;66.90
58153;DHT22;43967;51.634;5.566;2023-07-13T19:54:56;23.50;67.20
58153;DHT22;43967;51.634;5.566;2023-07-13T20:00:21;23.40;67.20
58153;DHT22;43967;51.634;5.566;2023-07-13T20:05:43;23.30;67.00
58153;DHT22;43967;51.634;5.566;2023-07-13T20:11:04;23.30;67.30
58153;DHT22;43967;51.634;5.566;2023-07-13T20:16:26;23.20;67.40
58153;DHT22;43967;51.634;5.566;2023-07-13T20:21:47;23.20;67.00
58153;DHT22;43967;51.634;5.566;2023-07-13T20:27:08;23.20;66.60
58153;DHT22;43967;51.634;5.566;2023-07-13T20:32:30;23.10;66.20
58153;DHT22;43967;51.634;5.566;2023-07-13T20:37:51;23.00;66.30
58153;DHT22;43967;51.634;5.566;2023-07-13T20:43:13;23.00;66.30
58153;DHT22;43967;51.634;5.566;2023-07-13T20:48:38;23.00;66.80
58153;DHT22;43967;51.634;5.566;2023-07-13T20:54:00;22.90;66.80
58153;DHT22;43967;51.634;5.566;2023-07-13T20:59:21;22.90;66.40
58153;DHT22;43967;51.634;5.566;2023-07-13T21:04:43;22.80;66.30
58153;DHT22;43967;51.634;5.566;2023-07-13T21:10:24;22.70;65.90
58153;DHT22;43967;51.634;5.566;2023-07-13T21:15:46;22.70;65.80
58153;DHT22;43967;51.634;5.566;2023-07-13T21:21:11;22.70;65.50
58153;DHT22;43967;51.634;5.566;2023-07-13T21:26:33;22.90;65.40
58153;DHT22;43967;51.634;5.566;2023-07-13T21:31:54;23.10;64.70
58153;DHT22;43967;51.634;5.566;2023-07-13T21:37:17;23.20;64.30
58153;DHT22;43967;51.634;5.566;2023-07-13T21:42:39;23.30;64.00
58153;DHT22;43967;51.634;5.566;2023-07-13T21:48:00;23.40;63.80
58153;DHT22;43967;51.634;5.566;2023-07-13T21:58:45;23.50;63.40
58153;DHT22;43967;51.634;5.566;2023-07-13T22:04:12;23.50;63.20
58153;DHT22;43967;51.634;5.566;2023-07-13T22:09:34;23.50;63.10
58153;DHT22;43967;51.634;5.566;2023-07-13T22:14:55;23.60;62.90
58153;DHT22;43967;51.634;5.566;2023-07-13T22:20:19;23.60;62.70
58153;DHT22;43967;51.634;5.566;2023-07-13T22:25:41;23.70;62.70
58153;DHT22;43967;51.634;5.566;2023-07-13T22:31:02;23.70;62.50
58153;DHT22;43967;51.634;5.566;2023-07-13T22:36:24;23.70;62.40
58153;DHT22;43967;51.634;5.566;2023-07-13T22:41:46;23.70;62.30
58153;DHT22;43967;51.634;5.566;2023-07-13T22:47:15;23.70;62.10
58153;DHT22;43967;51.634;5.566;2023-07-13T22:52:37;23.80;62.10
58153;DHT22;43967;51.634;5.566;2023-07-13T22:57:58;23.80;62.00
58153;DHT22;43967;51.634;5.566;2023-07-13T23:03:19;23.80;61.90
58153;DHT22;43967;51.634;5.566;2023-07-13T23:08:41;23.80;61.80
58153;DHT22;43967;51.634;5.566;2023-07-13T23:14:02;23.80;61.70
58153;DHT22;43967;51.634;5.566;2023-07-13T23:19:29;23.80;61.60
58153;DHT22;43967;51.634;5.566;2023-07-13T23:24:50;23.90;61.60
58153;DHT22;43967;51.634;5.566;2023-07-13T23:30:16;23.80;61.50
58153;DHT22;43967;51.634;5.566;2023-07-13T23:35:37;23.80;61.40
58153;DHT22;43967;51.634;5.566;2023-07-13T23:40:58;23.80;61.40
58153;DHT22;43967;51.634;5.566;2023-07-13T23:46:28;23.90;61.30
58153;DHT22;43967;51.634;5.566;2023-07-13T23:52:01;23.90;61.30
58153;DHT22;43967;51.634;5.566;2023-07-13T23:57:22;23.90;61.10
